sensor_id;sensor_type;location;lat;lon;timestamp;pressure;altitude;pressure_sealevel;temperature;humidity
26823;BME280;14852;51.910;8.878;2023-03-24T00:01:13;98405.81;;;14.71;58.06
26823;BME280;14852;51.910;8.878;2023-03-24T00:03:39;98400.03;;;14.67;57.67
26823;BME280;14852;51.910;8.878;2023-03-24T00:06:06;98405.94;;;14.69;58.19
26823;BME280;14852;51.910;8.878;2023-03-24T00:08:35;98405.41;;;14.66;58.27
26823;BME280;14852;51.910;8.878;2023-03-24T00:11:06;98406.22;;;14.66;58.51
26823;BME280;14852;51.910;8.878;2023-03-24T00:13:33;98403.91;;;14.63;58.52
26823;BME280;14852;51.910;8.878;2023-03-24T00:16:11;98389.19;;;14.62;58.28
26823;BME280;14852;51.910;8.878;2023-03-24T00:18:40;98393.16;;;14.57;59.00
26823;BME280;14852;51.910;8.878;2023-03-24T00:21:07;98393.28;;;14.55;59.09
26823;BME280;14852;51.910;8.878;2023-03-24T00:23:34;98389.03;;;14.54;59.24
26823;BME280;14852;51.910;8.878;2023-03-24T00:26:10;98381.06;;;14.56;59.23
26823;BME280;14852;51.910;8.878;2023-03-24T00:28:45;98378.56;;;14.54;59.72
26823;BME280;14852;51.910;8.878;2023-03-24T00:31:13;98374.03;;;14.56;58.97
26823;BME280;14852;51.910;8.878;2023-03-24T00:33:41;98370.75;;;14.54;59.26
26823;BME280;14852;51.910;8.878;2023-03-24T00:36:09;98368.81;;;14.56;59.75
26823;BME280;14852;51.910;8.878;2023-03-24T00:38:40;98357.53;;;14.56;59.47
26823;BME280;14852;51.910;8.878;2023-03-24T00:41:07;98361.81;;;14.57;59.37
26823;BME280;14852;51.910;8.878;2023-03-24T00:43:35;98358.34;;;14.56;59.59
26823;BME280;14852;51.910;8.878;2023-03-24T00:46:09;98347.06;;;14.56;59.58
26823;BME280;14852;51.910;8.878;2023-03-24T00:48:36;98341.84;;;14.56;59.71
26823;BME280;14852;51.910;8.878;2023-03-24T00:51:05;98329.09;;;14.53;59.99
26823;BME280;14852;51.910;8.878;2023-03-24T00:53:33;98337.88;;;14.52;60.41
26823;BME280;14852;51.910;8.878;2023-03-24T00:55:59;98331.69;;;14.53;60.37
26823;BME280;14852;51.910;8.878;2023-03-24T00:58:26;98331.69;;;14.53;60.74
26823;BME280;14852;51.910;8.878;2023-03-24T01:00:56;98313.22;;;14.54;60.51
26823;BME280;14852;51.910;8.878;2023-03-24T01:03:23;98311.63;;;14.53;60.71
26823;BME280;14852;51.910;8.878;2023-03-24T01:05:54;98315.84;;;14.54;60.35
26823;BME280;14852;51.910;8.878;2023-03-24T01:08:22;98302.13;;;14.52;60.95
26823;BME280;14852;51.910;8.878;2023-03-24T01:10:51;98309.13;;;14.52;61.08
26823;BME280;14852;51.910;8.878;2023-03-24T01:13:28;98307.22;;;14.54;61.22
26823;BME280;14852;51.910;8.878;2023-03-24T01:15:55;98298.53;;;14.53;61.47
26823;BME280;14852;51.910;8.878;2023-03-24T01:18:21;98311.63;;;14.53;61.31
26823;BME280;14852;51.910;8.878;2023-03-24T01:20:52;98295.09;;;14.53;61.13
26823;BME280;14852;51.910;8.878;2023-03-24T01:23:23;98288.63;;;14.57;61.49
26823;BME280;14852;51.910;8.878;2023-03-24T01:25:51;98286.81;;;14.57;61.53
26823;BME280;14852;51.910;8.878;2023-03-24T01:28:23;98289.31;;;14.59;61.36
26823;BME280;14852;51.910;8.878;2023-03-24T01:30:52;98281.47;;;14.59;61.33
26823;BME280;14852;51.910;8.878;2023-03-24T01:33:18;98271.13;;;14.57;61.37
26823;BME280;14852;51.910;8.878;2023-03-24T01:35:44;98265.78;;;14.59;61.17
26823;BME280;14852;51.910;8.878;2023-03-24T01:38:11;98271.84;;;14.59;61.93
26823;BME280;14852;51.910;8.878;2023-03-24T01:40:42;98264.69;;;14.61;61.38
26823;BME280;14852;51.910;8.878;2023-03-24T01:43:24;98253.94;;;14.64;61.08
26823;BME280;14852;51.910;8.878;2023-03-24T01:48:53;98250.34;;;14.65;61.37
26823;BME280;14852;51.910;8.878;2023-03-24T01:51:36;98244.31;;;14.65;61.62
26823;BME280;14852;51.910;8.878;2023-03-24T01:54:41;98243.50;;;14.64;61.44
26823;BME280;14852;51.910;8.878;2023-03-24T01:57:16;98239.38;;;14.62;61.63
26823;BME280;14852;51.910;8.878;2023-03-24T01:59:49;98228.91;;;14.62;62.14
26823;BME280;14852;51.910;8.878;2023-03-24T02:02:41;98222.13;;;14.69;61.49
26823;BME280;14852;51.910;8.878;2023-03-24T02:05:11;98224.19;;;14.65;61.74
26823;BME280;14852;51.910;8.878;2023-03-24T02:10:36;98216.06;;;14.68;61.97
26823;BME280;14852;51.910;8.878;2023-03-24T02:13:03;98211.53;;;14.70;61.97
26823;BME280;14852;51.910;8.878;2023-03-24T02:15:31;98217.44;;;14.72;62.17
26823;BME280;14852;51.910;8.878;2023-03-24T02:18:18;98211.63;;;14.78;61.81
26823;BME280;14852;51.910;8.878;2023-03-24T02:21:42;98194.97;;;14.79;61.77
26823;BME280;14852;51.910;8.878;2023-03-24T02:27:30;98188.63;;;14.82;61.89
26823;BME280;14852;51.910;8.878;2023-03-24T02:30:16;98183.56;;;14.80;61.79
26823;BME280;14852;51.910;8.878;2023-03-24T02:39:34;98186.56;;;14.85;62.21
26823;BME280;14852;51.910;8.878;2023-03-24T02:42:33;98181.47;;;14.84;62.08
26823;BME280;14852;51.910;8.878;2023-03-24T02:48:22;98190.97;;;14.85;61.95
26823;BME280;14852;51.910;8.878;2023-03-24T02:51:11;98174.16;;;14.88;62.22
26823;BME280;14852;51.910;8.878;2023-03-24T02:56:59;98174.31;;;14.86;62.12
26823;BME280;14852;51.910;8.878;2023-03-24T03:00:00;98167.44;;;14.85;61.95
26823;BME280;14852;51.910;8.878;2023-03-24T03:03:02;98161.53;;;14.83;62.21
26823;BME280;14852;51.910;8.878;2023-03-24T03:05:43;98149.28;;;14.83;62.20
26823;BME280;14852;51.910;8.878;2023-03-24T03:08:13;98142.41;;;14.82;62.62
26823;BME280;14852;51.910;8.878;2023-03-24T03:10:45;98141.56;;;14.82;62.90
26823;BME280;14852;51.910;8.878;2023-03-24T03:13:30;98126.72;;;14.82;62.89
26823;BME280;14852;51.910;8.878;2023-03-24T03:16:04;98115.72;;;14.79;62.85
26823;BME280;14852;51.910;8.878;2023-03-24T03:18:41;98113.09;;;14.79;63.16
26823;BME280;14852;51.910;8.878;2023-03-24T03:21:13;98112.28;;;14.78;62.88
26823;BME280;14852;51.910;8.878;2023-03-24T03:23:51;98104.97;;;14.82;62.72
26823;BME280;14852;51.910;8.878;2023-03-24T03:26:20;98096.59;;;14.78;63.45
26823;BME280;14852;51.910;8.878;2023-03-24T03:28:52;98096.44;;;14.80;63.01
26823;BME280;14852;51.910;8.878;2023-03-24T03:31:35;98084.88;;;14.82;63.22
26823;BME280;14852;51.910;8.878;2023-03-24T03:37:09;98072.00;;;14.89;63.17
26823;BME280;14852;51.910;8.878;2023-03-24T03:39:51;98064.03;;;14.91;63.31
26823;BME280;14852;51.910;8.878;2023-03-24T03:42:19;98066.63;;;14.91;63.39
26823;BME280;14852;51.910;8.878;2023-03-24T03:44:45;98053.56;;;14.91;63.20
26823;BME280;14852;51.910;8.878;2023-03-24T03:47:12;98049.84;;;14.93;63.17
26823;BME280;14852;51.910;8.878;2023-03-24T03:49:43;98062.47;;;14.98;63.07
26823;BME280;14852;51.910;8.878;2023-03-24T03:52:09;98058.56;;;15.02;63.39
26823;BME280;14852;51.910;8.878;2023-03-24T03:54:36;98047.97;;;15.03;62.75
26823;BME280;14852;51.910;8.878;2023-03-24T03:57:03;98050.97;;;15.08;62.89
26823;BME280;14852;51.910;8.878;2023-03-24T03:59:36;98042.16;;;15.09;63.24
26823;BME280;14852;51.910;8.878;2023-03-24T04:02:42;98036.44;;;15.14;62.96
26823;BME280;14852;51.910;8.878;2023-03-24T04:05:32;98044.00;;;15.17;63.14
26823;BME280;14852;51.910;8.878;2023-03-24T04:08:43;98043.19;;;15.16;62.92
26823;BME280;14852;51.910;8.878;2023-03-24T04:11:43;98040.41;;;15.18;62.88
26823;BME280;14852;51.910;8.878;2023-03-24T04:15:19;98045.50;;;15.19;62.98
26823;BME280;14852;51.910;8.878;2023-03-24T04:27:37;98040.94;;;15.21;62.63
26823;BME280;14852;51.910;8.878;2023-03-24T04:30:34;98037.50;;;15.21;62.73
26823;BME280;14852;51.910;8.878;2023-03-24T04:33:18;98041.09;;;15.20;63.08
26823;BME280;14852;51.910;8.878;2023-03-24T04:36:08;98041.78;;;15.22;62.82
26823;BME280;14852;51.910;8.878;2023-03-24T04:39:03;98033.25;;;15.20;62.97
26823;BME280;14852;51.910;8.878;2023-03-24T04:41:36;98035.91;;;15.28;62.52
26823;BME280;14852;51.910;8.878;2023-03-24T04:44:19;98030.69;;;15.28;62.49
26823;BME280;14852;51.910;8.878;2023-03-24T04:47:04;98024.63;;;15.28;62.79
26823;BME280;14852;51.910;8.878;2023-03-24T04:49:37;98032.84;;;15.33;62.78
26823;BME280;14852;51.910;8.878;2023-03-24T04:52:04;98021.56;;;15.32;62.87
26823;BME280;14852;51.910;8.878;2023-03-24T04:54:32;98017.97;;;15.33;62.95
26823;BME280;14852;51.910;8.878;2023-03-24T04:57:03;98017.81;;;15.35;62.56
26823;BME280;14852;51.910;8.878;2023-03-24T04:59:38;98029.47;;;15.40;62.47
26823;BME280;14852;51.910;8.878;2023-03-24T05:02:05;98020.34;;;15.44;62.36
26823;BME280;14852;51.910;8.878;2023-03-24T05:04:50;98015.59;;;15.48;62.71
26823;BME280;14852;51.910;8.878;2023-03-24T05:07:23;98023.84;;;15.53;62.31
26823;BME280;14852;51.910;8.878;2023-03-24T05:09:52;98004.41;;;15.55;62.59
26823;BME280;14852;51.910;8.878;2023-03-24T05:12:18;98007.53;;;15.59;62.75
26823;BME280;14852;51.910;8.878;2023-03-24T05:15:10;98008.88;;;15.63;62.49
26823;BME280;14852;51.910;8.878;2023-03-24T05:17:36;98006.09;;;15.65;62.39
26823;BME280;14852;51.910;8.878;2023-03-24T05:20:03;98012.69;;;15.69;62.52
26823;BME280;14852;51.910;8.878;2023-03-24T05:22:36;98024.28;;;15.66;62.36
26823;BME280;14852;51.910;8.878;2023-03-24T05:25:03;98023.47;;;15.66;62.44
26823;BME280;14852;51.910;8.878;2023-03-24T05:27:29;98030.34;;;15.67;62.36
26823;BME280;14852;51.910;8.878;2023-03-24T05:29:55;98036.69;;;15.64;62.73
26823;BME280;14852;51.910;8.878;2023-03-24T05:32:24;98030.94;;;15.61;62.53
26823;BME280;14852;51.910;8.878;2023-03-24T05:34:50;98019.16;;;15.56;62.81
26823;BME280;14852;51.910;8.878;2023-03-24T05:37:23;98031.84;;;15.51;62.88
26823;BME280;14852;51.910;8.878;2023-03-24T05:39:50;98040.00;;;15.48;63.26
26823;BME280;14852;51.910;8.878;2023-03-24T05:42:43;98049.78;;;15.46;63.25
26823;BME280;14852;51.910;8.878;2023-03-24T05:45:10;98070.09;;;15.44;63.46
26823;BME280;14852;51.910;8.878;2023-03-24T05:47:38;98073.00;;;15.41;63.45
26823;BME280;14852;51.910;8.878;2023-03-24T05:50:05;98068.19;;;15.37;63.61
26823;BME280;14852;51.910;8.878;2023-03-24T05:52:33;98068.81;;;15.31;63.87
26823;BME280;14852;51.910;8.878;2023-03-24T05:55:15;98077.63;;;15.30;63.78
26823;BME280;14852;51.910;8.878;2023-03-24T05:57:42;98078.75;;;15.27;64.10
26823;BME280;14852;51.910;8.878;2023-03-24T06:00:21;98087.06;;;15.23;63.95
26823;BME280;14852;51.910;8.878;2023-03-24T06:02:57;98070.84;;;15.19;64.05
26823;BME280;14852;51.910;8.878;2023-03-24T06:05:35;98081.88;;;15.13;63.81
26823;BME280;14852;51.910;8.878;2023-03-24T06:08:01;98099.69;;;15.09;63.94
26823;BME280;14852;51.910;8.878;2023-03-24T06:10:30;98098.34;;;15.05;64.11
26823;BME280;14852;51.910;8.878;2023-03-24T06:12:57;98101.63;;;15.07;63.82
26823;BME280;14852;51.910;8.878;2023-03-24T06:15:24;98097.22;;;15.08;63.57
26823;BME280;14852;51.910;8.878;2023-03-24T06:17:53;98099.03;;;15.07;64.10
26823;BME280;14852;51.910;8.878;2023-03-24T06:20:26;98102.47;;;15.08;63.40
26823;BME280;14852;51.910;8.878;2023-03-24T06:23:02;98112.09;;;15.07;63.40
26823;BME280;14852;51.910;8.878;2023-03-24T06:25:39;98125.31;;;15.06;63.54
26823;BME280;14852;51.910;8.878;2023-03-24T06:28:21;98128.75;;;15.06;63.72
26823;BME280;14852;51.910;8.878;2023-03-24T06:30:48;98126.28;;;15.05;63.64
26823;BME280;14852;51.910;8.878;2023-03-24T06:33:20;98124.50;;;15.05;63.56
26823;BME280;14852;51.910;8.878;2023-03-24T06:35:47;98129.72;;;15.05;63.81
26823;BME280;14852;51.910;8.878;2023-03-24T06:38:15;98129.44;;;15.08;63.39
26823;BME280;14852;51.910;8.878;2023-03-24T06:40:42;98131.75;;;15.11;63.42
26823;BME280;14852;51.910;8.878;2023-03-24T06:43:09;98137.66;;;15.13;63.56
26823;BME280;14852;51.910;8.878;2023-03-24T06:45:37;98131.31;;;15.16;63.57
26823;BME280;14852;51.910;8.878;2023-03-24T06:48:05;98148.38;;;15.20;63.07
26823;BME280;14852;51.910;8.878;2023-03-24T06:50:32;98153.22;;;15.33;63.08
26823;BME280;14852;51.910;8.878;2023-03-24T06:53:04;98144.44;;;16.21;61.04
26823;BME280;14852;51.910;8.878;2023-03-24T06:55:32;98131.59;;;18.01;56.83
26823;BME280;14852;51.910;8.878;2023-03-24T06:57:57;98137.50;;;19.36;54.01
26823;BME280;14852;51.910;8.878;2023-03-24T07:00:23;98139.00;;;20.51;51.33
26823;BME280;14852;51.910;8.878;2023-03-24T07:03:01;98133.94;;;21.79;48.79
26823;BME280;14852;51.910;8.878;2023-03-24T07:05:28;98143.69;;;21.57;49.23
26823;BME280;14852;51.910;8.878;2023-03-24T07:07:54;98160.22;;;21.09;50.25
26823;BME280;14852;51.910;8.878;2023-03-24T07:10:38;98175.56;;;20.02;53.18
26823;BME280;14852;51.910;8.878;2023-03-24T07:13:05;98168.97;;;19.30;55.32
26823;BME280;14852;51.910;8.878;2023-03-24T07:15:33;98181.75;;;18.71;55.23
26823;BME280;14852;51.910;8.878;2023-03-24T07:17:59;98194.53;;;18.11;55.62
26823;BME280;14852;51.910;8.878;2023-03-24T07:20:38;98208.59;;;17.53;56.40
26823;BME280;14852;51.910;8.878;2023-03-24T07:23:12;98209.38;;;17.37;57.34
26823;BME280;14852;51.910;8.878;2023-03-24T07:26:04;98220.41;;;17.41;56.67
26823;BME280;14852;51.910;8.878;2023-03-24T07:28:52;98230.78;;;17.08;56.86
26823;BME280;14852;51.910;8.878;2023-03-24T07:31:25;98247.41;;;16.83;56.37
26823;BME280;14852;51.910;8.878;2023-03-24T07:33:58;98245.88;;;16.72;56.17
26823;BME280;14852;51.910;8.878;2023-03-24T07:36:24;98239.88;;;16.88;55.51
26823;BME280;14852;51.910;8.878;2023-03-24T07:38:50;98260.31;;;17.10;54.44
26823;BME280;14852;51.910;8.878;2023-03-24T07:41:24;98263.13;;;17.67;53.10
26823;BME280;14852;51.910;8.878;2023-03-24T07:43:58;98253.63;;;19.58;49.12
26823;BME280;14852;51.910;8.878;2023-03-24T07:46:29;98243.09;;;19.58;48.51
26823;BME280;14852;51.910;8.878;2023-03-24T07:48:55;98254.81;;;20.01;47.96
26823;BME280;14852;51.910;8.878;2023-03-24T07:51:22;98252.66;;;20.79;45.35
26823;BME280;14852;51.910;8.878;2023-03-24T07:53:52;98252.25;;;21.12;45.34
26823;BME280;14852;51.910;8.878;2023-03-24T07:56:28;98259.28;;;22.06;44.31
26823;BME280;14852;51.910;8.878;2023-03-24T07:58:57;98261.22;;;22.96;42.71
26823;BME280;14852;51.910;8.878;2023-03-24T08:01:42;98253.38;;;23.16;42.30
26823;BME280;14852;51.910;8.878;2023-03-24T08:04:12;98251.81;;;23.95;41.37
26823;BME280;14852;51.910;8.878;2023-03-24T08:07:01;98256.28;;;25.00;39.24
26823;BME280;14852;51.910;8.878;2023-03-24T08:09:28;98248.06;;;25.73;37.94
26823;BME280;14852;51.910;8.878;2023-03-24T08:11:54;98250.16;;;26.52;37.02
26823;BME280;14852;51.910;8.878;2023-03-24T08:14:19;98248.16;;;26.65;36.51
26823;BME280;14852;51.910;8.878;2023-03-24T08:16:45;98262.91;;;26.18;37.25
26823;BME280;14852;51.910;8.878;2023-03-24T08:19:11;98284.91;;;24.85;38.88
26823;BME280;14852;51.910;8.878;2023-03-24T08:21:37;98279.72;;;23.30;41.24
26823;BME280;14852;51.910;8.878;2023-03-24T08:24:03;98280.91;;;21.95;42.67
26823;BME280;14852;51.910;8.878;2023-03-24T08:26:28;98304.31;;;22.13;42.59
26823;BME280;14852;51.910;8.878;2023-03-24T08:28:55;98294.44;;;22.70;41.08
26823;BME280;14852;51.910;8.878;2023-03-24T08:31:21;98308.47;;;22.71;40.49
26823;BME280;14852;51.910;8.878;2023-03-24T08:33:47;98321.66;;;23.55;38.61
26823;BME280;14852;51.910;8.878;2023-03-24T08:36:12;98315.41;;;22.93;39.46
26823;BME280;14852;51.910;8.878;2023-03-24T08:38:38;98314.50;;;22.58;40.27
26823;BME280;14852;51.910;8.878;2023-03-24T08:41:05;98324.22;;;22.09;40.92
26823;BME280;14852;51.910;8.878;2023-03-24T08:43:34;98320.63;;;22.37;39.74
26823;BME280;14852;51.910;8.878;2023-03-24T08:46:01;98322.47;;;22.37;40.00
26823;BME280;14852;51.910;8.878;2023-03-24T08:48:28;98312.56;;;21.67;41.88
26823;BME280;14852;51.910;8.878;2023-03-24T08:50:55;98313.94;;;21.48;42.06
26823;BME280;14852;51.910;8.878;2023-03-24T08:53:21;98327.22;;;20.96;43.29
26823;BME280;14852;51.910;8.878;2023-03-24T08:55:47;98322.53;;;21.21;41.86
26823;BME280;14852;51.910;8.878;2023-03-24T08:58:18;98336.22;;;21.02;42.55
26823;BME280;14852;51.910;8.878;2023-03-24T09:00:46;98334.25;;;21.48;41.92
26823;BME280;14852;51.910;8.878;2023-03-24T09:03:18;98334.84;;;20.91;42.00
26823;BME280;14852;51.910;8.878;2023-03-24T09:05:47;98336.56;;;20.01;43.99
26823;BME280;14852;51.910;8.878;2023-03-24T09:08:15;98350.16;;;19.42;44.90
26823;BME280;14852;51.910;8.878;2023-03-24T09:10:42;98331.06;;;20.33;42.93
26823;BME280;14852;51.910;8.878;2023-03-24T09:13:08;98328.72;;;19.84;43.80
26823;BME280;14852;51.910;8.878;2023-03-24T09:15:35;98341.41;;;19.50;44.56
26823;BME280;14852;51.910;8.878;2023-03-24T09:18:01;98335.69;;;20.31;43.81
26823;BME280;14852;51.910;8.878;2023-03-24T09:20:27;98340.78;;;20.55;42.79
26823;BME280;14852;51.910;8.878;2023-03-24T09:22:53;98334.19;;;20.37;42.86
26823;BME280;14852;51.910;8.878;2023-03-24T09:25:22;98339.03;;;20.71;42.99
26823;BME280;14852;51.910;8.878;2023-03-24T09:27:48;98329.59;;;21.06;42.26
26823;BME280;14852;51.910;8.878;2023-03-24T09:30:16;98334.84;;;20.76;42.63
26823;BME280;14852;51.910;8.878;2023-03-24T09:32:43;98339.34;;;20.30;43.77
26823;BME280;14852;51.910;8.878;2023-03-24T09:35:09;98331.03;;;19.87;43.97
26823;BME280;14852;51.910;8.878;2023-03-24T09:37:37;98331.53;;;19.52;45.21
26823;BME280;14852;51.910;8.878;2023-03-24T09:40:04;98329.13;;;19.34;45.52
26823;BME280;14852;51.910;8.878;2023-03-24T09:42:38;98332.06;;;19.39;45.98
26823;BME280;14852;51.910;8.878;2023-03-24T09:45:17;98336.66;;;19.45;45.54
26823;BME280;14852;51.910;8.878;2023-03-24T09:47:53;98329.66;;;19.22;45.95
26823;BME280;14852;51.910;8.878;2023-03-24T09:50:35;98338.75;;;19.11;45.97
26823;BME280;14852;51.910;8.878;2023-03-24T09:53:21;98335.66;;;18.99;46.08
26823;BME280;14852;51.910;8.878;2023-03-24T09:55:51;98339.91;;;19.08;46.29
26823;BME280;14852;51.910;8.878;2023-03-24T09:58:18;98345.09;;;19.33;45.92
26823;BME280;14852;51.910;8.878;2023-03-24T10:00:44;98335.66;;;19.55;45.12
26823;BME280;14852;51.910;8.878;2023-03-24T10:03:20;98340.75;;;19.48;44.99
26823;BME280;14852;51.910;8.878;2023-03-24T10:05:52;98341.25;;;19.43;44.57
26823;BME280;14852;51.910;8.878;2023-03-24T10:08:36;98331.19;;;19.55;44.83
26823;BME280;14852;51.910;8.878;2023-03-24T10:11:18;98337.09;;;19.65;45.15
26823;BME280;14852;51.910;8.878;2023-03-24T10:14:16;98350.63;;;19.54;45.19
26823;BME280;14852;51.910;8.878;2023-03-24T10:17:16;98356.91;;;19.45;45.47
26823;BME280;14852;51.910;8.878;2023-03-24T10:20:11;98355.63;;;19.33;45.40
26823;BME280;14852;51.910;8.878;2023-03-24T10:26:26;98374.78;;;19.10;46.00
26823;BME280;14852;51.910;8.878;2023-03-24T10:29:21;98370.16;;;19.12;45.42
26823;BME280;14852;51.910;8.878;2023-03-24T10:31:59;98385.47;;;19.09;45.44
26823;BME280;14852;51.910;8.878;2023-03-24T10:34:30;98370.69;;;19.00;45.87
26823;BME280;14852;51.910;8.878;2023-03-24T10:37:02;98382.88;;;19.01;45.48
26823;BME280;14852;51.910;8.878;2023-03-24T10:39:30;98374.81;;;18.86;45.34
26823;BME280;14852;51.910;8.878;2023-03-24T10:41:57;98387.47;;;18.83;45.84
26823;BME280;14852;51.910;8.878;2023-03-24T10:44:24;98387.63;;;18.97;45.14
26823;BME280;14852;51.910;8.878;2023-03-24T10:46:54;98387.13;;;19.10;45.16
26823;BME280;14852;51.910;8.878;2023-03-24T10:49:23;98375.88;;;19.32;43.92
26823;BME280;14852;51.910;8.878;2023-03-24T10:51:52;98385.41;;;19.33;44.72
26823;BME280;14852;51.910;8.878;2023-03-24T10:54:30;98389.84;;;19.41;44.67
26823;BME280;14852;51.910;8.878;2023-03-24T10:59:39;98396.94;;;19.48;44.43
26823;BME280;14852;51.910;8.878;2023-03-24T11:02:30;98395.25;;;19.39;44.34
26823;BME280;14852;51.910;8.878;2023-03-24T11:05:18;98387.38;;;19.39;44.56
26823;BME280;14852;51.910;8.878;2023-03-24T11:07:49;98386.75;;;19.37;43.99
26823;BME280;14852;51.910;8.878;2023-03-24T11:10:23;98391.84;;;19.31;43.72
26823;BME280;14852;51.910;8.878;2023-03-24T11:17:56;98387.84;;;19.43;43.98
26823;BME280;14852;51.910;8.878;2023-03-24T11:20:35;98386.91;;;19.36;43.51
26823;BME280;14852;51.910;8.878;2023-03-24T11:25:49;98393.16;;;19.35;43.66
26823;BME280;14852;51.910;8.878;2023-03-24T11:28:23;98391.13;;;19.61;43.69
26823;BME280;14852;51.910;8.878;2023-03-24T11:30:52;98380.22;;;19.72;43.11
26823;BME280;14852;51.910;8.878;2023-03-24T11:33:25;98388.69;;;19.91;43.21
26823;BME280;14852;51.910;8.878;2023-03-24T11:35:53;98388.56;;;19.84;42.59
26823;BME280;14852;51.910;8.878;2023-03-24T11:38:32;98392.88;;;19.77;42.57
26823;BME280;14852;51.910;8.878;2023-03-24T11:41:01;98401.97;;;19.66;42.05
26823;BME280;14852;51.910;8.878;2023-03-24T11:43:30;98395.41;;;19.54;42.54
26823;BME280;14852;51.910;8.878;2023-03-24T11:46:11;98407.59;;;19.55;42.95
26823;BME280;14852;51.910;8.878;2023-03-24T11:48:46;98403.38;;;19.38;42.64
26823;BME280;14852;51.910;8.878;2023-03-24T11:51:29;98404.81;;;19.40;43.17
26823;BME280;14852;51.910;8.878;2023-03-24T11:53:58;98399.56;;;19.48;42.63
26823;BME280;14852;51.910;8.878;2023-03-24T11:56:40;98388.00;;;19.58;42.17
26823;BME280;14852;51.910;8.878;2023-03-24T11:59:30;98385.72;;;19.55;41.74
26823;BME280;14852;51.910;8.878;2023-03-24T12:05:13;98391.03;;;19.22;42.09
26823;BME280;14852;51.910;8.878;2023-03-24T12:08:18;98394.69;;;19.13;42.34
26823;BME280;14852;51.910;8.878;2023-03-24T12:11:04;98390.56;;;19.10;41.98
26823;BME280;14852;51.910;8.878;2023-03-24T12:16:23;98409.31;;;19.24;41.90
26823;BME280;14852;51.910;8.878;2023-03-24T12:31:10;98425.47;;;18.88;42.41
26823;BME280;14852;51.910;8.878;2023-03-24T12:42:47;98406.22;;;18.71;42.24
26823;BME280;14852;51.910;8.878;2023-03-24T12:48:32;98398.16;;;18.73;42.17
26823;BME280;14852;51.910;8.878;2023-03-24T12:51:12;98395.38;;;18.58;41.72
26823;BME280;14852;51.910;8.878;2023-03-24T12:54:11;98394.34;;;18.51;41.82
26823;BME280;14852;51.910;8.878;2023-03-24T12:56:50;98392.38;;;18.53;41.90
26823;BME280;14852;51.910;8.878;2023-03-24T12:59:31;98395.34;;;18.50;41.61
26823;BME280;14852;51.910;8.878;2023-03-24T13:02:35;98388.44;;;18.49;41.46
26823;BME280;14852;51.910;8.878;2023-03-24T13:05:07;98393.53;;;18.42;41.96
26823;BME280;14852;51.910;8.878;2023-03-24T13:07:40;98391.53;;;18.36;42.06
26823;BME280;14852;51.910;8.878;2023-03-24T13:10:20;98395.34;;;18.42;41.67
26823;BME280;14852;51.910;8.878;2023-03-24T13:13:15;98394.69;;;18.56;41.85
26823;BME280;14852;51.910;8.878;2023-03-24T13:15:59;98396.38;;;18.65;41.38
26823;BME280;14852;51.910;8.878;2023-03-24T13:18:39;98400.28;;;18.53;41.95
26823;BME280;14852;51.910;8.878;2023-03-24T13:21:11;98397.81;;;18.43;41.74
26823;BME280;14852;51.910;8.878;2023-03-24T13:24:10;98387.59;;;18.40;41.46
26823;BME280;14852;51.910;8.878;2023-03-24T13:26:53;98378.22;;;18.38;40.94
26823;BME280;14852;51.910;8.878;2023-03-24T13:29:46;98384.47;;;18.37;41.44
26823;BME280;14852;51.910;8.878;2023-03-24T13:37:48;98382.97;;;18.26;41.99
26823;BME280;14852;51.910;8.878;2023-03-24T13:40:25;98387.59;;;18.32;41.66
26823;BME280;14852;51.910;8.878;2023-03-24T13:43:06;98383.66;;;18.28;41.95
26823;BME280;14852;51.910;8.878;2023-03-24T13:45:45;98389.06;;;18.19;41.50
26823;BME280;14852;51.910;8.878;2023-03-24T13:50:52;98386.28;;;18.28;41.36
26823;BME280;14852;51.910;8.878;2023-03-24T13:53:31;98382.81;;;18.36;41.40
26823;BME280;14852;51.910;8.878;2023-03-24T13:55:59;98377.25;;;18.39;41.41
26823;BME280;14852;51.910;8.878;2023-03-24T13:58:42;98389.72;;;18.29;41.17
26823;BME280;14852;51.910;8.878;2023-03-24T14:03:37;98403.34;;;18.24;41.52
26823;BME280;14852;51.910;8.878;2023-03-24T14:06:09;98398.94;;;18.41;41.10
26823;BME280;14852;51.910;8.878;2023-03-24T14:08:55;98389.25;;;18.50;41.23
26823;BME280;14852;51.910;8.878;2023-03-24T14:22:28;98402.34;;;18.09;41.10
26823;BME280;14852;51.910;8.878;2023-03-24T14:25:03;98408.44;;;18.09;40.50
26823;BME280;14852;51.910;8.878;2023-03-24T14:27:42;98384.28;;;18.14;40.25
26823;BME280;14852;51.910;8.878;2023-03-24T14:30:17;98387.91;;;18.21;40.07
26823;BME280;14852;51.910;8.878;2023-03-24T14:32:51;98391.53;;;18.28;40.36
26823;BME280;14852;51.910;8.878;2023-03-24T14:35:38;98384.13;;;18.24;40.49
26823;BME280;14852;51.910;8.878;2023-03-24T14:38:23;98388.53;;;18.07;40.31
26823;BME280;14852;51.910;8.878;2023-03-24T14:40:59;98403.28;;;18.00;40.75
26823;BME280;14852;51.910;8.878;2023-03-24T14:46:43;98392.78;;;18.00;41.05
26823;BME280;14852;51.910;8.878;2023-03-24T14:49:29;98385.06;;;17.98;40.48
26823;BME280;14852;51.910;8.878;2023-03-24T14:52:12;98391.78;;;17.93;40.24
26823;BME280;14852;51.910;8.878;2023-03-24T14:54:47;98402.13;;;17.86;40.66
26823;BME280;14852;51.910;8.878;2023-03-24T14:57:46;98394.41;;;17.85;40.19
26823;BME280;14852;51.910;8.878;2023-03-24T15:00:42;98394.53;;;17.75;39.87
26823;BME280;14852;51.910;8.878;2023-03-24T15:06:25;98400.06;;;17.64;40.05
26823;BME280;14852;51.910;8.878;2023-03-24T15:08:58;98401.47;;;17.58;40.54
26823;BME280;14852;51.910;8.878;2023-03-24T15:11:34;98392.78;;;17.58;40.21
26823;BME280;14852;51.910;8.878;2023-03-24T15:14:03;98387.81;;;17.55;40.25
26823;BME280;14852;51.910;8.878;2023-03-24T15:16:35;98382.94;;;17.60;40.72
26823;BME280;14852;51.910;8.878;2023-03-24T15:19:25;98388.75;;;17.63;40.79
26823;BME280;14852;51.910;8.878;2023-03-24T15:22:04;98396.13;;;17.68;40.42
26823;BME280;14852;51.910;8.878;2023-03-24T15:24:36;98382.00;;;17.69;40.76
26823;BME280;14852;51.910;8.878;2023-03-24T15:29:32;98392.81;;;17.66;40.49